createdAt,value
2023-03-10T00:01:30.239Z,2367.8528428093646
2023-03-10T00:12:54.587Z,2342.6889632107022
2023-03-10T00:19:14.562Z,2346.9732441471574
2023-03-10T00:31:02.742Z,2371.9966555183946
2023-03-10T00:37:21.732Z,2367.170568561873
2023-03-10T00:43:40.895Z,2466.2809364548493
2023-03-10T00:50:01.020Z,2297.56856187291
2023-03-10T01:07:06.132Z,2449.274247491639
2023-03-10T01:15:27.827Z,2432.3779264214045
2023-03-10T01:22:09.004Z,2321.3177257525085
2023-03-10T01:28:30.160Z,2297.969899665552
2023-03-10T01:38:00.277Z,2288.819397993311
2023-03-10T01:44:21.242Z,2199.521739130435
2023-03-10T01:50:40.164Z,2257.0836120401336
2023-03-10T01:57:01.117Z,2190.0200668896323
2023-03-10T02:05:00.449Z,2248.153846153846
2023-03-10T02:14:27.417Z,2178.6822742474915
2023-03-10T02:24:12.099Z,2205.1003344481605
2023-03-10T02:30:30.772Z,2107.0234113712377
2023-03-10T02:36:51.590Z,2070.4113712374583
2023-03-10T02:43:09.628Z,2050.0234113712377
2023-03-10T02:49:29.545Z,1914.2809364548496
2023-03-10T02:56:27.289Z,1922.4782608695652
2023-03-10T03:11:40.653Z,1930.0635451505016
2023-03-10T03:17:59.241Z,1873.3946488294314
2023-03-10T03:24:19.613Z,1869.6220735785953
2023-03-10T03:30:40.192Z,1932.8829431438128
2023-03-10T03:37:00.361Z,1916.628762541806
2023-03-10T03:43:18.583Z,1834.9665551839464
2023-03-10T03:51:23.304Z,1822.314381270903
2023-03-10T03:57:43.458Z,1789.6454849498327
2023-03-10T04:04:03.304Z,1859.1170568561872
2023-03-10T04:15:33.413Z,1808.1973244147157
2023-03-10T04:21:55.398Z,1717.8060200668897
2023-03-10T04:28:13.528Z,1768.484949832776
2023-03-10T04:34:33.909Z,1740.1705685618729
2023-03-10T04:40:52.587Z,1679.7892976588628
2023-03-10T04:47:12.658Z,1669.9966555183946
2023-03-10T04:53:30.577Z,1645.5652173913043
2023-03-10T05:04:14.116Z,1718.3377926421404
2023-03-10T05:17:27.082Z,1628.1070234113713
2023-03-10T05:27:00.409Z,1672.5250836120401
2023-03-10T05:33:19.239Z,1681.675585284281
2023-03-10T05:47:09.366Z,1727.2976588628762
2023-03-10T05:58:02.970Z,1762.0936454849498
2023-03-10T06:04:23.640Z,1835.066889632107
2023-03-10T06:14:41.406Z,1917.6822742474917
2023-03-10T06:21:06.714Z,2067.792642140468
2023-03-10T06:30:12.253Z,2231.759197324415
2023-03-10T06:36:31.416Z,2314.886287625418
2023-03-10T06:42:53.349Z,2373.2207357859534
2023-03-10T06:49:13.863Z,2435.8695652173915
2023-03-10T07:00:51.002Z,2468.3779264214045
2023-03-10T07:07:09.695Z,2614.505016722408
2023-03-10T07:13:30.178Z,2641.0033444816054
2023-03-10T07:19:49.833Z,2670.953177257525
2023-03-10T07:27:47.156Z,2773.9665551839466
2023-03-10T07:40:49.196Z,2841.923076923077
2023-03-10T07:47:25.965Z,2934.150501672241
2023-03-10T07:59:13.644Z,3061.073578595318
2023-03-10T08:08:12.891Z,2965.153846153846
2023-03-10T08:15:09.886Z,2853.2909698996655
2023-03-10T08:21:30.197Z,3072.0802675585282
2023-03-10T08:27:49.553Z,2988.4113712374583
2023-03-10T08:34:09.767Z,3036.2508361204013
2023-03-10T08:41:44.012Z,3123.872909698997
2023-03-10T08:48:03.739Z,3195.0802675585282
2023-03-10T08:54:24.209Z,3605.8695652173915
2023-03-10T09:00:42.151Z,3507.0802675585282
2023-03-10T09:07:00.980Z,3375.2809364548493
2023-03-10T09:17:16.047Z,3120.1003344481605
2023-03-10T09:23:37.006Z,2987.3979933110368
2023-03-10T09:29:59.651Z,2909.819397993311
2023-03-10T09:42:36.409Z,2999.5886287625417
2023-03-10T09:48:58.546Z,3247.9665551839466
2023-03-10T10:00:01.507Z,3471.0602006688964
2023-03-10T10:06:21.993Z,3338.969899665552
2023-03-10T10:12:42.714Z,3687.6120401337794
2023-03-10T10:23:34.013Z,3352.9665551839466
2023-03-10T10:35:38.728Z,3234.2709030100336
2023-03-10T10:50:35.470Z,3134.8996655518395
2023-03-10T10:58:22.012Z,3086.5083612040135
2023-03-10T11:05:45.462Z,2982.180602006689
2023-03-10T11:12:06.948Z,3103.57525083612
2023-03-10T11:18:27.651Z,3154.8260869565215
2023-03-10T11:24:48.132Z,3153.0702341137126
2023-03-10T11:31:08.846Z,3026.789297658863
2023-03-10T11:44:48.308Z,2985.983277591973
2023-03-10T11:51:08.848Z,3063.8227424749166
2023-03-10T12:02:25.152Z,3048.8327759197323
2023-03-10T12:13:29.347Z,3232.0334448160534
2023-03-10T12:19:50.117Z,3206.839464882943
2023-03-10T12:29:01.427Z,3243.4715719063547
2023-03-10T12:35:22.019Z,3331.4448160535117
2023-03-10T12:41:42.889Z,3095.1571906354516
2023-03-10T12:48:03.675Z,3205.0033444816054
2023-03-10T12:54:24.087Z,3378.3311036789296
2023-03-10T13:00:44.744Z,3289.545150501672
2023-03-10T13:17:33.730Z,3420.521739130435
2023-03-10T13:24:00.285Z,3501.6923076923076
2023-03-10T13:33:52.211Z,3740.0367892976587
2023-03-10T13:40:14.938Z,4072.0133779264215
2023-03-10T13:46:35.962Z,3602.8695652173915
2023-03-10T13:52:57.388Z,3622.725752508361
2023-03-10T13:59:18.874Z,3454.725752508361
2023-03-10T14:07:52.382Z,3315.872909698997
2023-03-10T14:14:10.816Z,3312.3411371237457
2023-03-10T14:20:30.265Z,3533.61872909699
2023-03-10T14:26:51.162Z,3502.685618729097
2023-03-10T14:37:48.531Z,3407.5886287625417
2023-03-10T14:44:07.707Z,3688.505016722408
2023-03-10T14:52:26.095Z,4214.488294314381
2023-03-10T14:58:46.128Z,4636.80602006689
2023-03-10T15:07:59.835Z,4774.52508361204
2023-03-10T15:14:18.235Z,4607.056856187291
2023-03-10T15:20:38.646Z,4562.929765886288
2023-03-10T15:26:57.209Z,4500.882943143813
2023-03-10T15:33:17.574Z,4431.571906354515
2023-03-10T15:42:47.541Z,4464.411371237458
2023-03-10T15:56:35.505Z,4472.819397993311
2023-03-10T16:02:55.929Z,4525.665551839465
2023-03-10T16:09:14.856Z,4486.0133779264215
2023-03-10T16:19:22.280Z,4144.896321070234
2023-03-10T16:25:42.677Z,3981.8929765886287
2023-03-10T16:37:28.409Z,3797.5886287625417
2023-03-10T16:51:52.920Z,3775.063545150502
2023-03-10T17:01:15.323Z,3809.3177257525085
2023-03-10T17:07:46.399Z,3629.9197324414718
2023-03-10T17:14:12.738Z,3458.418060200669
2023-03-10T17:20:33.697Z,3552.6120401337794
2023-03-10T17:26:53.309Z,3573.0802675585282
2023-03-10T17:38:17.862Z,3589.09364548495
2023-03-10T17:44:41.776Z,3885.0602006688964
2023-03-10T17:51:03.265Z,3520.0033444816054
2023-03-10T17:57:35.165Z,3298.274247491639
2023-03-10T18:03:55.312Z,3268.5652173913045
2023-03-10T18:19:32.009Z,3665.247491638796
2023-03-10T18:25:52.807Z,3635.3779264214045
2023-03-10T18:32:11.540Z,3393.913043478261
2023-03-10T18:38:34.720Z,3203.207357859532
2023-03-10T18:44:56.292Z,3216.551839464883
2023-03-10T18:51:16.018Z,3269.1170568561874
2023-03-10T18:57:37.813Z,2959.123745819398
2023-03-10T19:07:48.405Z,3382.665551839465
2023-03-10T19:14:08.416Z,3236.9799331103677
2023-03-10T19:20:27.797Z,3259.153846153846
2023-03-10T19:30:26.748Z,2928.3311036789296
2023-03-10T19:36:46.068Z,3041.3578595317726
2023-03-10T19:43:07.342Z,3075.2508361204013
2023-03-10T19:52:34.313Z,3025.3745819397996
2023-03-10T20:11:41.535Z,2458.886287625418
2023-03-10T20:22:00.526Z,2440.494983277592
2023-03-10T20:28:21.052Z,2689.655518394649
2023-03-10T20:38:47.332Z,2976.521739130435
2023-03-10T20:45:09.285Z,3116.28762541806
2023-03-10T20:54:19.006Z,2983.6153846153848
2023-03-10T21:04:22.838Z,2992.274247491639
2023-03-10T21:10:44.693Z,3027.8929765886287
2023-03-10T21:17:06.757Z,3055.0334448160534
2023-03-10T21:23:30.060Z,3351.040133779264
2023-03-10T21:41:14.758Z,3094.2341137123744
2023-03-10T21:47:39.537Z,3068.076923076923
2023-03-10T21:56:22.833Z,3044.4280936454848
2023-03-10T22:02:46.033Z,2952.923076923077
2023-03-10T22:09:09.794Z,3087.9632107023413
2023-03-10T22:17:59.379Z,2940.923076923077
2023-03-10T22:29:59.361Z,2828.127090301003
2023-03-10T22:36:19.877Z,2916.561872909699
2023-03-10T22:42:40.860Z,2773.9966555183946
2023-03-10T22:49:00.115Z,2455.705685618729
2023-03-10T22:55:20.636Z,2298.923076923077
2023-03-10T23:01:40.407Z,2302.063545150502
2023-03-10T23:08:49.737Z,2635.47491638796
2023-03-10T23:15:15.412Z,2679.43143812709
2023-03-10T23:25:25.502Z,1866.2207357859531
2023-03-10T23:31:43.667Z,1390.6153846153845
2023-03-10T23:38:03.264Z,1350.8428093645484
2023-03-10T23:44:23.134Z,1230.0
2023-03-10T23:50:42.751Z,1078.324414715719
2023-03-10T23:57:09.312Z,697.6555183946489
